sensor_id;sensor_type;location;lat;lon;timestamp;temperature;humidity
26224;DHT22;14820;48.682;8.890;2022-11-27T00:01:51;1.50;99.90
26224;DHT22;14820;48.682;8.890;2022-11-27T00:04:17;1.40;99.90
26224;DHT22;14820;48.682;8.890;2022-11-27T00:06:43;1.40;99.90
26224;DHT22;14820;48.682;8.890;2022-11-27T00:09:14;1.40;99.90
26224;DHT22;14820;48.682;8.890;2022-11-27T00:11:40;1.40;99.90
26224;DHT22;14820;48.682;8.890;2022-11-27T00:14:08;1.40;99.90
26224;DHT22;14820;48.682;8.890;2022-11-27T00:16:35;1.30;99.90
26224;DHT22;14820;48.682;8.890;2022-11-27T00:19:00;1.40;99.90
26224;DHT22;14820;48.682;8.890;2022-11-27T00:21:31;1.40;99.90
26224;DHT22;14820;48.682;8.890;2022-11-27T00:23:59;1.50;99.90
26224;DHT22;14820;48.682;8.890;2022-11-27T00:26:26;1.50;99.90
26224;DHT22;14820;48.682;8.890;2022-11-27T00:28:52;1.50;99.90
26224;DHT22;14820;48.682;8.890;2022-11-27T00:31:23;1.50;99.90
26224;DHT22;14820;48.682;8.890;2022-11-27T00:33:56;1.60;99.90
26224;DHT22;14820;48.682;8.890;2022-11-27T00:36:23;1.50;99.90
26224;DHT22;14820;48.682;8.890;2022-11-27T00:38:49;1.50;99.90
26224;DHT22;14820;48.682;8.890;2022-11-27T00:41:18;1.50;99.90
26224;DHT22;14820;48.682;8.890;2022-11-27T00:43:44;1.50;99.90
26224;DHT22;14820;48.682;8.890;2022-11-27T00:46:19;1.50;99.90
26224;DHT22;14820;48.682;8.890;2022-11-27T00:48:45;1.50;99.90
26224;DHT22;14820;48.682;8.890;2022-11-27T00:51:16;1.50;99.90
26224;DHT22;14820;48.682;8.890;2022-11-27T00:53:42;1.50;99.90
26224;DHT22;14820;48.682;8.890;2022-11-27T00:56:13;1.50;99.90
26224;DHT22;14820;48.682;8.890;2022-11-27T00:58:40;1.60;99.90
26224;DHT22;14820;48.682;8.890;2022-11-27T01:01:06;1.50;99.90
26224;DHT22;14820;48.682;8.890;2022-11-27T01:03:33;1.40;99.90
26224;DHT22;14820;48.682;8.890;2022-11-27T01:06:06;1.40;99.90
26224;DHT22;14820;48.682;8.890;2022-11-27T01:08:33;1.40;99.90
26224;DHT22;14820;48.682;8.890;2022-11-27T01:10:59;1.50;99.90
26224;DHT22;14820;48.682;8.890;2022-11-27T01:13:34;1.50;99.90
26224;DHT22;14820;48.682;8.890;2022-11-27T01:16:08;1.50;99.90
26224;DHT22;14820;48.682;8.890;2022-11-27T01:18:35;1.40;99.90
26224;DHT22;14820;48.682;8.890;2022-11-27T01:21:01;1.40;99.90
26224;DHT22;14820;48.682;8.890;2022-11-27T01:23:27;1.30;99.90
26224;DHT22;14820;48.682;8.890;2022-11-27T01:25:53;1.30;99.90
26224;DHT22;14820;48.682;8.890;2022-11-27T01:28:21;1.30;99.90
26224;DHT22;14820;48.682;8.890;2022-11-27T01:30:47;1.30;99.90
26224;DHT22;14820;48.682;8.890;2022-11-27T01:33:13;1.30;99.90
26224;DHT22;14820;48.682;8.890;2022-11-27T01:35:38;1.20;99.90
26224;DHT22;14820;48.682;8.890;2022-11-27T01:38:04;1.20;99.90
26224;DHT22;14820;48.682;8.890;2022-11-27T01:40:30;1.20;99.90
26224;DHT22;14820;48.682;8.890;2022-11-27T01:42:55;1.20;99.90
26224;DHT22;14820;48.682;8.890;2022-11-27T01:45:22;1.20;99.90
26224;DHT22;14820;48.682;8.890;2022-11-27T01:47:56;1.20;99.90
26224;DHT22;14820;48.682;8.890;2022-11-27T01:50:24;1.20;99.90
26224;DHT22;14820;48.682;8.890;2022-11-27T01:53:00;1.30;99.90
26224;DHT22;14820;48.682;8.890;2022-11-27T01:55:36;1.30;99.90
26224;DHT22;14820;48.682;8.890;2022-11-27T01:58:08;1.30;99.90
26224;DHT22;14820;48.682;8.890;2022-11-27T02:00:35;1.20;99.90
26224;DHT22;14820;48.682;8.890;2022-11-27T02:03:01;1.20;99.90
26224;DHT22;14820;48.682;8.890;2022-11-27T02:05:27;1.20;99.90
26224;DHT22;14820;48.682;8.890;2022-11-27T02:07:55;1.20;99.90
26224;DHT22;14820;48.682;8.890;2022-11-27T02:11:18;1.20;99.90
26224;DHT22;14820;48.682;8.890;2022-11-27T02:13:37;1.10;99.90
26224;DHT22;14820;48.682;8.890;2022-11-27T02:26:16;1.10;99.90
26224;DHT22;14820;48.682;8.890;2022-11-27T02:31:08;1.00;99.90
26224;DHT22;14820;48.682;8.890;2022-11-27T02:33:38;0.90;99.90
26224;DHT22;14820;48.682;8.890;2022-11-27T02:36:08;0.90;99.90
26224;DHT22;14820;48.682;8.890;2022-11-27T02:38:43;0.90;99.90
26224;DHT22;14820;48.682;8.890;2022-11-27T02:41:25;0.80;99.90
26224;DHT22;14820;48.682;8.890;2022-11-27T02:43:53;0.80;99.90
26224;DHT22;14820;48.682;8.890;2022-11-27T02:46:20;0.80;99.90
26224;DHT22;14820;48.682;8.890;2022-11-27T02:48:55;0.80;99.90
26224;DHT22;14820;48.682;8.890;2022-11-27T02:51:26;0.70;99.90
26224;DHT22;14820;48.682;8.890;2022-11-27T02:53:57;0.70;99.90
26224;DHT22;14820;48.682;8.890;2022-11-27T02:56:26;0.70;99.90
26224;DHT22;14820;48.682;8.890;2022-11-27T02:58:55;0.70;99.90
26224;DHT22;14820;48.682;8.890;2022-11-27T03:01:24;0.70;99.90
26224;DHT22;14820;48.682;8.890;2022-11-27T03:03:54;0.70;99.90
26224;DHT22;14820;48.682;8.890;2022-11-27T03:06:36;0.70;99.90
26224;DHT22;14820;48.682;8.890;2022-11-27T03:09:17;0.70;99.90
26224;DHT22;14820;48.682;8.890;2022-11-27T03:11:46;0.60;99.90
26224;DHT22;14820;48.682;8.890;2022-11-27T03:14:13;0.60;99.90
26224;DHT22;14820;48.682;8.890;2022-11-27T03:16:54;0.70;99.90
26224;DHT22;14820;48.682;8.890;2022-11-27T03:19:24;0.80;99.90
26224;DHT22;14820;48.682;8.890;2022-11-27T03:21:56;0.80;99.90
26224;DHT22;14820;48.682;8.890;2022-11-27T03:24:23;0.60;99.90
26224;DHT22;14820;48.682;8.890;2022-11-27T03:26:50;0.70;99.90
26224;DHT22;14820;48.682;8.890;2022-11-27T03:29:33;0.80;99.90
26224;DHT22;14820;48.682;8.890;2022-11-27T03:32:00;0.80;99.90
26224;DHT22;14820;48.682;8.890;2022-11-27T03:34:26;0.80;99.90
26224;DHT22;14820;48.682;8.890;2022-11-27T03:36:53;0.90;99.90
26224;DHT22;14820;48.682;8.890;2022-11-27T03:39:20;0.80;99.90
26224;DHT22;14820;48.682;8.890;2022-11-27T03:45:07;0.70;99.90
26224;DHT22;14820;48.682;8.890;2022-11-27T03:48:12;0.70;99.90
26224;DHT22;14820;48.682;8.890;2022-11-27T03:59:22;0.50;99.90
26224;DHT22;14820;48.682;8.890;2022-11-27T04:01:48;0.40;99.90
26224;DHT22;14820;48.682;8.890;2022-11-27T04:04:14;0.40;99.90
26224;DHT22;14820;48.682;8.890;2022-11-27T04:06:39;0.40;99.90
26224;DHT22;14820;48.682;8.890;2022-11-27T04:09:05;0.40;99.90
26224;DHT22;14820;48.682;8.890;2022-11-27T04:11:31;0.40;99.90
26224;DHT22;14820;48.682;8.890;2022-11-27T04:13:57;0.40;99.90
26224;DHT22;14820;48.682;8.890;2022-11-27T04:16:23;0.30;99.90
26224;DHT22;14820;48.682;8.890;2022-11-27T04:18:48;0.40;99.90
26224;DHT22;14820;48.682;8.890;2022-11-27T04:21:14;0.40;99.90
26224;DHT22;14820;48.682;8.890;2022-11-27T04:23:41;0.50;99.90
26224;DHT22;14820;48.682;8.890;2022-11-27T04:26:07;0.50;99.90
26224;DHT22;14820;48.682;8.890;2022-11-27T04:28:33;0.40;99.90
26224;DHT22;14820;48.682;8.890;2022-11-27T04:30:59;0.40;99.90
26224;DHT22;14820;48.682;8.890;2022-11-27T04:33:24;0.40;99.90
26224;DHT22;14820;48.682;8.890;2022-11-27T04:35:50;0.40;99.90
26224;DHT22;14820;48.682;8.890;2022-11-27T04:38:17;0.40;99.90
26224;DHT22;14820;48.682;8.890;2022-11-27T04:40:43;0.30;99.90
26224;DHT22;14820;48.682;8.890;2022-11-27T04:43:08;0.20;99.90
26224;DHT22;14820;48.682;8.890;2022-11-27T04:45:34;0.20;99.90
26224;DHT22;14820;48.682;8.890;2022-11-27T04:48:01;0.20;99.90
26224;DHT22;14820;48.682;8.890;2022-11-27T04:50:27;0.20;99.90
26224;DHT22;14820;48.682;8.890;2022-11-27T04:52:52;0.10;99.90
26224;DHT22;14820;48.682;8.890;2022-11-27T04:55:18;0.10;99.90
26224;DHT22;14820;48.682;8.890;2022-11-27T04:57:43;0.20;99.90
26224;DHT22;14820;48.682;8.890;2022-11-27T05:00:09;0.30;99.90
26224;DHT22;14820;48.682;8.890;2022-11-27T05:02:35;0.10;99.90
26224;DHT22;14820;48.682;8.890;2022-11-27T05:05:03;0.30;99.90
26224;DHT22;14820;48.682;8.890;2022-11-27T05:07:29;-0.10;99.90
26224;DHT22;14820;48.682;8.890;2022-11-27T05:09:55;-0.10;99.90
26224;DHT22;14820;48.682;8.890;2022-11-27T05:12:20;-0.10;99.90
26224;DHT22;14820;48.682;8.890;2022-11-27T05:14:46;-0.10;99.90
26224;DHT22;14820;48.682;8.890;2022-11-27T05:17:11;-0.20;99.90
26224;DHT22;14820;48.682;8.890;2022-11-27T05:19:37;-0.20;99.90
26224;DHT22;14820;48.682;8.890;2022-11-27T05:22:03;-0.20;99.90
26224;DHT22;14820;48.682;8.890;2022-11-27T05:24:29;-0.30;99.90
26224;DHT22;14820;48.682;8.890;2022-11-27T05:26:55;-0.20;99.90
26224;DHT22;14820;48.682;8.890;2022-11-27T05:29:21;-0.10;99.90
26224;DHT22;14820;48.682;8.890;2022-11-27T05:31:47;-0.20;99.90
26224;DHT22;14820;48.682;8.890;2022-11-27T05:34:13;-0.20;99.90
26224;DHT22;14820;48.682;8.890;2022-11-27T05:36:39;-0.20;99.90
26224;DHT22;14820;48.682;8.890;2022-11-27T05:39:06;-0.20;99.90
26224;DHT22;14820;48.682;8.890;2022-11-27T05:41:34;-0.30;99.90
26224;DHT22;14820;48.682;8.890;2022-11-27T05:44:00;-0.30;99.90
26224;DHT22;14820;48.682;8.890;2022-11-27T05:46:25;-0.30;99.90
26224;DHT22;14820;48.682;8.890;2022-11-27T05:48:51;-0.30;99.90
26224;DHT22;14820;48.682;8.890;2022-11-27T05:51:17;-0.30;99.90
26224;DHT22;14820;48.682;8.890;2022-11-27T05:53:43;-0.40;99.90
26224;DHT22;14820;48.682;8.890;2022-11-27T05:56:12;-0.40;99.90
26224;DHT22;14820;48.682;8.890;2022-11-27T05:58:40;-0.40;99.90
26224;DHT22;14820;48.682;8.890;2022-11-27T06:01:07;-0.40;99.90
26224;DHT22;14820;48.682;8.890;2022-11-27T06:03:33;-0.40;99.90
26224;DHT22;14820;48.682;8.890;2022-11-27T06:06:07;-0.40;99.90
26224;DHT22;14820;48.682;8.890;2022-11-27T06:08:35;-0.40;99.90
26224;DHT22;14820;48.682;8.890;2022-11-27T06:11:08;-0.30;99.90
26224;DHT22;14820;48.682;8.890;2022-11-27T06:13:35;-0.40;99.90
26224;DHT22;14820;48.682;8.890;2022-11-27T06:16:15;-0.40;99.90
26224;DHT22;14820;48.682;8.890;2022-11-27T06:18:41;-0.50;99.90
26224;DHT22;14820;48.682;8.890;2022-11-27T06:21:08;-0.50;99.90
26224;DHT22;14820;48.682;8.890;2022-11-27T06:23:35;-0.50;99.90
26224;DHT22;14820;48.682;8.890;2022-11-27T06:28:40;-0.60;99.90
26224;DHT22;14820;48.682;8.890;2022-11-27T06:31:07;-0.50;99.90
26224;DHT22;14820;48.682;8.890;2022-11-27T06:33:33;-0.50;99.90
26224;DHT22;14820;48.682;8.890;2022-11-27T06:36:00;-0.60;99.90
26224;DHT22;14820;48.682;8.890;2022-11-27T06:38:25;-0.60;99.90
26224;DHT22;14820;48.682;8.890;2022-11-27T06:40:51;-0.40;99.90
26224;DHT22;14820;48.682;8.890;2022-11-27T06:43:17;-0.30;99.90
26224;DHT22;14820;48.682;8.890;2022-11-27T06:45:42;-0.30;99.90
26224;DHT22;14820;48.682;8.890;2022-11-27T06:48:08;-0.30;99.90
26224;DHT22;14820;48.682;8.890;2022-11-27T06:50:33;-0.20;99.90
26224;DHT22;14820;48.682;8.890;2022-11-27T06:52:59;-0.30;99.90
26224;DHT22;14820;48.682;8.890;2022-11-27T06:55:25;-0.30;99.90
26224;DHT22;14820;48.682;8.890;2022-11-27T06:57:50;-0.20;99.90
26224;DHT22;14820;48.682;8.890;2022-11-27T07:00:17;-0.40;99.90
26224;DHT22;14820;48.682;8.890;2022-11-27T07:02:43;-0.50;99.90
26224;DHT22;14820;48.682;8.890;2022-11-27T07:05:08;-0.40;99.90
26224;DHT22;14820;48.682;8.890;2022-11-27T07:07:34;-0.40;99.90
26224;DHT22;14820;48.682;8.890;2022-11-27T07:09:59;-0.40;99.90
26224;DHT22;14820;48.682;8.890;2022-11-27T07:12:25;-0.30;99.90
26224;DHT22;14820;48.682;8.890;2022-11-27T07:14:51;-0.30;99.90
26224;DHT22;14820;48.682;8.890;2022-11-27T07:17:16;-0.30;99.90
26224;DHT22;14820;48.682;8.890;2022-11-27T07:19:42;-0.30;99.90
26224;DHT22;14820;48.682;8.890;2022-11-27T07:22:08;-0.30;99.90
26224;DHT22;14820;48.682;8.890;2022-11-27T07:24:33;-0.20;99.90
26224;DHT22;14820;48.682;8.890;2022-11-27T07:27:00;-0.10;99.90
26224;DHT22;14820;48.682;8.890;2022-11-27T07:29:25;0.00;99.90
26224;DHT22;14820;48.682;8.890;2022-11-27T07:31:51;0.10;99.90
26224;DHT22;14820;48.682;8.890;2022-11-27T07:34:16;0.10;99.90
26224;DHT22;14820;48.682;8.890;2022-11-27T07:36:42;0.20;99.90
26224;DHT22;14820;48.682;8.890;2022-11-27T07:39:08;0.20;99.90
26224;DHT22;14820;48.682;8.890;2022-11-27T07:41:33;0.30;99.90
26224;DHT22;14820;48.682;8.890;2022-11-27T07:43:59;0.20;99.90
26224;DHT22;14820;48.682;8.890;2022-11-27T07:46:25;0.20;99.90
26224;DHT22;14820;48.682;8.890;2022-11-27T07:48:50;0.20;99.90
26224;DHT22;14820;48.682;8.890;2022-11-27T07:51:19;0.20;99.90
26224;DHT22;14820;48.682;8.890;2022-11-27T07:53:45;0.20;99.90
26224;DHT22;14820;48.682;8.890;2022-11-27T07:56:13;0.20;99.90
26224;DHT22;14820;48.682;8.890;2022-11-27T07:58:39;0.30;99.90
26224;DHT22;14820;48.682;8.890;2022-11-27T08:01:09;0.40;99.90
26224;DHT22;14820;48.682;8.890;2022-11-27T08:03:36;0.40;99.90
26224;DHT22;14820;48.682;8.890;2022-11-27T08:06:02;0.40;99.90
26224;DHT22;14820;48.682;8.890;2022-11-27T08:08:28;0.50;99.90
26224;DHT22;14820;48.682;8.890;2022-11-27T08:10:54;0.50;99.90
26224;DHT22;14820;48.682;8.890;2022-11-27T08:13:19;0.60;99.90
26224;DHT22;14820;48.682;8.890;2022-11-27T08:15:45;0.60;99.90
26224;DHT22;14820;48.682;8.890;2022-11-27T08:18:11;0.70;99.90
26224;DHT22;14820;48.682;8.890;2022-11-27T08:20:37;0.70;99.90
26224;DHT22;14820;48.682;8.890;2022-11-27T08:23:03;0.80;99.90
26224;DHT22;14820;48.682;8.890;2022-11-27T08:25:29;1.00;99.90
26224;DHT22;14820;48.682;8.890;2022-11-27T08:27:55;0.80;99.90
26224;DHT22;14820;48.682;8.890;2022-11-27T08:30:21;0.90;99.90
26224;DHT22;14820;48.682;8.890;2022-11-27T08:32:48;0.90;99.90
26224;DHT22;14820;48.682;8.890;2022-11-27T08:35:13;1.00;99.90
26224;DHT22;14820;48.682;8.890;2022-11-27T08:37:39;1.00;99.90
26224;DHT22;14820;48.682;8.890;2022-11-27T08:40:05;1.10;99.90
26224;DHT22;14820;48.682;8.890;2022-11-27T08:42:31;1.20;99.90
26224;DHT22;14820;48.682;8.890;2022-11-27T08:44:57;1.20;99.90
26224;DHT22;14820;48.682;8.890;2022-11-27T08:47:22;1.20;99.90
26224;DHT22;14820;48.682;8.890;2022-11-27T08:49:48;1.30;99.90
26224;DHT22;14820;48.682;8.890;2022-11-27T08:52:14;1.40;99.90
26224;DHT22;14820;48.682;8.890;2022-11-27T08:54:39;1.50;99.90
26224;DHT22;14820;48.682;8.890;2022-11-27T08:57:05;1.50;99.90
26224;DHT22;14820;48.682;8.890;2022-11-27T08:59:31;1.60;99.90
26224;DHT22;14820;48.682;8.890;2022-11-27T09:01:56;1.60;99.90
26224;DHT22;14820;48.682;8.890;2022-11-27T09:04:22;1.60;99.90
26224;DHT22;14820;48.682;8.890;2022-11-27T09:06:47;1.70;99.90
26224;DHT22;14820;48.682;8.890;2022-11-27T09:09:13;1.80;99.90
26224;DHT22;14820;48.682;8.890;2022-11-27T09:11:39;1.80;99.90
26224;DHT22;14820;48.682;8.890;2022-11-27T09:14:06;1.90;99.90
26224;DHT22;14820;48.682;8.890;2022-11-27T09:16:34;1.90;99.90
26224;DHT22;14820;48.682;8.890;2022-11-27T09:19:00;2.00;99.90
26224;DHT22;14820;48.682;8.890;2022-11-27T09:21:27;2.00;99.90
26224;DHT22;14820;48.682;8.890;2022-11-27T09:23:59;2.00;99.90
26224;DHT22;14820;48.682;8.890;2022-11-27T09:26:27;2.00;99.90
26224;DHT22;14820;48.682;8.890;2022-11-27T09:28:53;2.00;99.90
26224;DHT22;14820;48.682;8.890;2022-11-27T09:31:20;2.10;99.90
26224;DHT22;14820;48.682;8.890;2022-11-27T09:33:47;2.10;99.90
26224;DHT22;14820;48.682;8.890;2022-11-27T09:36:16;2.20;99.90
26224;DHT22;14820;48.682;8.890;2022-11-27T09:38:42;2.30;99.90
26224;DHT22;14820;48.682;8.890;2022-11-27T09:41:20;2.30;99.90
26224;DHT22;14820;48.682;8.890;2022-11-27T09:43:53;2.40;99.90
26224;DHT22;14820;48.682;8.890;2022-11-27T09:46:40;2.50;99.90
26224;DHT22;14820;48.682;8.890;2022-11-27T09:49:11;2.60;99.90
26224;DHT22;14820;48.682;8.890;2022-11-27T09:51:46;2.70;99.90
26224;DHT22;14820;48.682;8.890;2022-11-27T09:54:15;2.80;99.90
26224;DHT22;14820;48.682;8.890;2022-11-27T09:56:46;2.90;99.90
26224;DHT22;14820;48.682;8.890;2022-11-27T09:59:21;2.90;99.90
26224;DHT22;14820;48.682;8.890;2022-11-27T10:01:47;3.10;99.90
26224;DHT22;14820;48.682;8.890;2022-11-27T10:04:15;3.20;99.90
26224;DHT22;14820;48.682;8.890;2022-11-27T10:15:20;3.50;99.90
26224;DHT22;14820;48.682;8.890;2022-11-27T10:25:46;3.70;99.90
26224;DHT22;14820;48.682;8.890;2022-11-27T10:28:32;3.80;99.90
26224;DHT22;14820;48.682;8.890;2022-11-27T10:33:42;3.90;99.90
26224;DHT22;14820;48.682;8.890;2022-11-27T10:36:37;4.00;99.90
26224;DHT22;14820;48.682;8.890;2022-11-27T10:39:06;4.20;99.90
26224;DHT22;14820;48.682;8.890;2022-11-27T10:41:42;4.60;99.90
26224;DHT22;14820;48.682;8.890;2022-11-27T10:44:31;4.70;99.90
26224;DHT22;14820;48.682;8.890;2022-11-27T10:47:02;4.90;99.90
26224;DHT22;14820;48.682;8.890;2022-11-27T10:49:29;4.90;99.90
26224;DHT22;14820;48.682;8.890;2022-11-27T10:51:55;4.90;99.90
26224;DHT22;14820;48.682;8.890;2022-11-27T10:54:31;5.00;99.90
26224;DHT22;14820;48.682;8.890;2022-11-27T11:00:12;5.30;99.90
26224;DHT22;14820;48.682;8.890;2022-11-27T11:02:39;5.50;99.90
26224;DHT22;14820;48.682;8.890;2022-11-27T11:05:22;5.60;99.90
26224;DHT22;14820;48.682;8.890;2022-11-27T11:10:51;5.80;99.90
26224;DHT22;14820;48.682;8.890;2022-11-27T11:13:21;6.00;99.90
26224;DHT22;14820;48.682;8.890;2022-11-27T11:15:57;6.10;99.90
26224;DHT22;14820;48.682;8.890;2022-11-27T11:18:27;6.10;99.90
26224;DHT22;14820;48.682;8.890;2022-11-27T11:21:01;6.10;99.90
26224;DHT22;14820;48.682;8.890;2022-11-27T11:23:35;6.00;99.90
26224;DHT22;14820;48.682;8.890;2022-11-27T11:26:10;6.00;99.90
26224;DHT22;14820;48.682;8.890;2022-11-27T11:28:55;6.00;99.90
26224;DHT22;14820;48.682;8.890;2022-11-27T11:31:28;6.00;99.90
26224;DHT22;14820;48.682;8.890;2022-11-27T11:34:04;6.10;99.90
26224;DHT22;14820;48.682;8.890;2022-11-27T11:36:30;6.20;99.90
26224;DHT22;14820;48.682;8.890;2022-11-27T11:38:56;6.30;99.90
26224;DHT22;14820;48.682;8.890;2022-11-27T11:41:22;6.40;99.90
26224;DHT22;14820;48.682;8.890;2022-11-27T11:43:59;6.50;99.90
26224;DHT22;14820;48.682;8.890;2022-11-27T11:46:29;6.50;99.90
26224;DHT22;14820;48.682;8.890;2022-11-27T11:57:10;6.70;99.90
26224;DHT22;14820;48.682;8.890;2022-11-27T12:00:16;6.80;99.90
26224;DHT22;14820;48.682;8.890;2022-11-27T12:05:53;7.00;99.90
26224;DHT22;14820;48.682;8.890;2022-11-27T12:11:18;7.30;99.90
26224;DHT22;14820;48.682;8.890;2022-11-27T12:16:49;7.40;99.90
26224;DHT22;14820;48.682;8.890;2022-11-27T12:25:41;7.50;99.90
26224;DHT22;14820;48.682;8.890;2022-11-27T12:30:53;7.40;99.90
26224;DHT22;14820;48.682;8.890;2022-11-27T12:47:42;7.50;99.90
26224;DHT22;14820;48.682;8.890;2022-11-27T12:50:19;7.60;99.90
26224;DHT22;14820;48.682;8.890;2022-11-27T12:52:56;7.60;99.90
26224;DHT22;14820;48.682;8.890;2022-11-27T12:55:29;7.60;99.90
26224;DHT22;14820;48.682;8.890;2022-11-27T12:58:05;7.50;99.90
26224;DHT22;14820;48.682;8.890;2022-11-27T13:00:35;7.50;99.90
26224;DHT22;14820;48.682;8.890;2022-11-27T13:03:24;7.50;99.90
26224;DHT22;14820;48.682;8.890;2022-11-27T13:06:07;7.50;99.90
26224;DHT22;14820;48.682;8.890;2022-11-27T13:09:04;7.40;99.90
26224;DHT22;14820;48.682;8.890;2022-11-27T13:11:36;7.50;99.90
26224;DHT22;14820;48.682;8.890;2022-11-27T13:14:21;7.50;99.90
26224;DHT22;14820;48.682;8.890;2022-11-27T13:16:52;7.40;99.90
26224;DHT22;14820;48.682;8.890;2022-11-27T13:19:31;7.40;99.90
26224;DHT22;14820;48.682;8.890;2022-11-27T13:21:58;7.40;99.90
26224;DHT22;14820;48.682;8.890;2022-11-27T13:24:25;7.30;99.90
26224;DHT22;14820;48.682;8.890;2022-11-27T13:29:38;7.30;99.90
26224;DHT22;14820;48.682;8.890;2022-11-27T13:32:08;7.30;99.90
26224;DHT22;14820;48.682;8.890;2022-11-27T13:34:42;7.30;99.90
26224;DHT22;14820;48.682;8.890;2022-11-27T13:37:09;7.20;99.90
26224;DHT22;14820;48.682;8.890;2022-11-27T13:39:47;7.20;99.90
26224;DHT22;14820;48.682;8.890;2022-11-27T13:42:22;7.20;99.90
26224;DHT22;14820;48.682;8.890;2022-11-27T13:44:57;7.20;99.90
26224;DHT22;14820;48.682;8.890;2022-11-27T13:47:25;7.20;99.90
26224;DHT22;14820;48.682;8.890;2022-11-27T13:50:07;7.20;99.90
26224;DHT22;14820;48.682;8.890;2022-11-27T13:52:35;7.10;99.90
26224;DHT22;14820;48.682;8.890;2022-11-27T13:55:06;7.10;99.90
26224;DHT22;14820;48.682;8.890;2022-11-27T13:57:34;7.10;99.90
26224;DHT22;14820;48.682;8.890;2022-11-27T14:00:07;7.10;99.90
26224;DHT22;14820;48.682;8.890;2022-11-27T14:02:45;7.10;99.90
26224;DHT22;14820;48.682;8.890;2022-11-27T14:05:14;7.00;99.90
26224;DHT22;14820;48.682;8.890;2022-11-27T14:07:42;7.00;99.90
26224;DHT22;14820;48.682;8.890;2022-11-27T14:10:14;7.00;99.90
26224;DHT22;14820;48.682;8.890;2022-11-27T14:12:40;6.90;99.90
26224;DHT22;14820;48.682;8.890;2022-11-27T14:17:40;6.90;99.90
26224;DHT22;14820;48.682;8.890;2022-11-27T14:22:56;6.90;99.90
26224;DHT22;14820;48.682;8.890;2022-11-27T14:25:27;6.90;99.90
26224;DHT22;14820;48.682;8.890;2022-11-27T14:30:49;6.90;99.90
26224;DHT22;14820;48.682;8.890;2022-11-27T14:33:22;6.90;99.90
26224;DHT22;14820;48.682;8.890;2022-11-27T14:36:02;6.90;99.90
26224;DHT22;14820;48.682;8.890;2022-11-27T14:38:32;6.80;99.90
26224;DHT22;14820;48.682;8.890;2022-11-27T14:41:10;6.80;99.90
26224;DHT22;14820;48.682;8.890;2022-11-27T14:43:36;6.80;99.90
26224;DHT22;14820;48.682;8.890;2022-11-27T14:46:03;6.70;99.90
26224;DHT22;14820;48.682;8.890;2022-11-27T14:48:50;6.70;99.90
26224;DHT22;14820;48.682;8.890;2022-11-27T14:51:23;6.60;99.90
26224;DHT22;14820;48.682;8.890;2022-11-27T14:53:53;6.60;99.90
26224;DHT22;14820;48.682;8.890;2022-11-27T14:56:21;6.60;99.90
26224;DHT22;14820;48.682;8.890;2022-11-27T14:58:50;6.50;99.90
26224;DHT22;14820;48.682;8.890;2022-11-27T15:01:26;6.50;99.90
26224;DHT22;14820;48.682;8.890;2022-11-27T15:03:57;6.50;99.90
26224;DHT22;14820;48.682;8.890;2022-11-27T15:06:23;6.40;99.90
26224;DHT22;14820;48.682;8.890;2022-11-27T15:08:49;6.40;99.90
26224;DHT22;14820;48.682;8.890;2022-11-27T15:11:16;6.40;99.90
26224;DHT22;14820;48.682;8.890;2022-11-27T15:13:42;6.30;99.90
26224;DHT22;14820;48.682;8.890;2022-11-27T15:16:17;6.20;99.90
26224;DHT22;14820;48.682;8.890;2022-11-27T15:18:58;6.20;99.90
26224;DHT22;14820;48.682;8.890;2022-11-27T15:21:25;6.20;99.90
26224;DHT22;14820;48.682;8.890;2022-11-27T15:23:52;6.10;99.90
26224;DHT22;14820;48.682;8.890;2022-11-27T15:26:32;6.00;99.90
26224;DHT22;14820;48.682;8.890;2022-11-27T15:28:59;6.00;99.90
26224;DHT22;14820;48.682;8.890;2022-11-27T15:36:22;6.00;99.90
26224;DHT22;14820;48.682;8.890;2022-11-27T15:38:48;5.90;99.90
26224;DHT22;14820;48.682;8.890;2022-11-27T15:41:25;5.90;99.90
26224;DHT22;14820;48.682;8.890;2022-11-27T15:43:51;5.90;99.90
26224;DHT22;14820;48.682;8.890;2022-11-27T15:46:33;5.90;99.90
26224;DHT22;14820;48.682;8.890;2022-11-27T15:48:59;5.90;99.90
26224;DHT22;14820;48.682;8.890;2022-11-27T15:51:25;5.90;99.90
26224;DHT22;14820;48.682;8.890;2022-11-27T15:53:50;5.80;99.90
26224;DHT22;14820;48.682;8.890;2022-11-27T15:56:16;5.80;99.90
26224;DHT22;14820;48.682;8.890;2022-11-27T15:58:42;5.80;99.90
26224;DHT22;14820;48.682;8.890;2022-11-27T16:01:09;5.70;99.90
26224;DHT22;14820;48.682;8.890;2022-11-27T16:03:35;5.70;99.90
26224;DHT22;14820;48.682;8.890;2022-11-27T16:06:03;5.70;99.90
26224;DHT22;14820;48.682;8.890;2022-11-27T16:08:29;5.70;99.90
26224;DHT22;14820;48.682;8.890;2022-11-27T16:10:59;5.70;99.90
26224;DHT22;14820;48.682;8.890;2022-11-27T16:13:25;5.70;99.90
26224;DHT22;14820;48.682;8.890;2022-11-27T16:15:51;5.70;99.90
26224;DHT22;14820;48.682;8.890;2022-11-27T16:18:16;5.70;99.90
26224;DHT22;14820;48.682;8.890;2022-11-27T16:20:42;5.70;99.90
26224;DHT22;14820;48.682;8.890;2022-11-27T16:23:08;5.70;99.90
26224;DHT22;14820;48.682;8.890;2022-11-27T16:25:37;5.70;99.90
26224;DHT22;14820;48.682;8.890;2022-11-27T16:28:03;5.70;99.90
26224;DHT22;14820;48.682;8.890;2022-11-27T16:30:29;5.70;99.90
26224;DHT22;14820;48.682;8.890;2022-11-27T16:32:55;5.70;99.90
26224;DHT22;14820;48.682;8.890;2022-11-27T16:35:21;5.70;99.90
26224;DHT22;14820;48.682;8.890;2022-11-27T16:37:48;5.70;99.90
26224;DHT22;14820;48.682;8.890;2022-11-27T16:40:13;5.70;99.90
26224;DHT22;14820;48.682;8.890;2022-11-27T16:42:39;5.70;99.90
26224;DHT22;14820;48.682;8.890;2022-11-27T16:45:05;5.70;99.90
26224;DHT22;14820;48.682;8.890;2022-11-27T16:47:31;5.60;99.90
26224;DHT22;14820;48.682;8.890;2022-11-27T16:49:57;5.70;99.90
26224;DHT22;14820;48.682;8.890;2022-11-27T16:52:22;5.70;99.90
26224;DHT22;14820;48.682;8.890;2022-11-27T16:54:48;5.60;99.90
26224;DHT22;14820;48.682;8.890;2022-11-27T16:57:14;5.60;99.90
26224;DHT22;14820;48.682;8.890;2022-11-27T16:59:39;5.60;99.90
26224;DHT22;14820;48.682;8.890;2022-11-27T17:02:05;5.60;99.90
26224;DHT22;14820;48.682;8.890;2022-11-27T17:04:31;5.50;99.90
26224;DHT22;14820;48.682;8.890;2022-11-27T17:06:59;5.50;99.90
26224;DHT22;14820;48.682;8.890;2022-11-27T17:09:25;5.50;99.90
26224;DHT22;14820;48.682;8.890;2022-11-27T17:11:54;5.50;99.90
26224;DHT22;14820;48.682;8.890;2022-11-27T17:14:20;5.50;99.90
26224;DHT22;14820;48.682;8.890;2022-11-27T17:16:46;5.50;99.90
26224;DHT22;14820;48.682;8.890;2022-11-27T17:19:13;5.50;99.90
26224;DHT22;14820;48.682;8.890;2022-11-27T17:21:40;5.40;99.90
26224;DHT22;14820;48.682;8.890;2022-11-27T17:24:09;5.40;99.90
26224;DHT22;14820;48.682;8.890;2022-11-27T17:26:35;5.40;99.90
26224;DHT22;14820;48.682;8.890;2022-11-27T17:29:09;5.40;99.90
26224;DHT22;14820;48.682;8.890;2022-11-27T17:31:36;5.40;99.90
26224;DHT22;14820;48.682;8.890;2022-11-27T17:34:03;5.40;99.90
26224;DHT22;14820;48.682;8.890;2022-11-27T17:36:30;5.40;99.90
26224;DHT22;14820;48.682;8.890;2022-11-27T17:38:56;5.30;99.90
26224;DHT22;14820;48.682;8.890;2022-11-27T17:41:22;5.30;99.90
26224;DHT22;14820;48.682;8.890;2022-11-27T17:43:48;5.20;99.90
26224;DHT22;14820;48.682;8.890;2022-11-27T17:46:27;5.20;99.90